createdAt,value
2018-08-24T00:00:02.300Z,21.60
2018-08-24T00:02:30.524Z,21.60
2018-08-24T00:04:58.703Z,21.60
2018-08-24T00:07:26.910Z,21.60
2018-08-24T00:09:55.093Z,21.60
2018-08-24T00:12:23.273Z,21.60
2018-08-24T00:14:51.668Z,21.50
2018-08-24T00:17:25.265Z,21.50
2018-08-24T00:19:53.440Z,21.50
2018-08-24T00:22:21.697Z,21.50
2018-08-24T00:24:49.866Z,21.50
2018-08-24T00:27:18.048Z,21.50
2018-08-24T00:29:46.233Z,21.50
2018-08-24T00:32:14.429Z,21.50
2018-08-24T00:34:42.625Z,21.50
2018-08-24T00:37:11.062Z,21.50
2018-08-24T00:39:42.341Z,21.50
2018-08-24T00:42:11.187Z,21.50
2018-08-24T00:44:39.926Z,21.50
2018-08-24T00:47:08.098Z,21.50
2018-08-24T00:49:36.297Z,21.40
2018-08-24T00:52:04.473Z,21.40
2018-08-24T00:54:32.708Z,21.30
2018-08-24T00:57:00.853Z,21.30
2018-08-24T00:59:29.406Z,21.30
2018-08-24T01:01:57.585Z,21.30
2018-08-24T01:04:31.121Z,21.30
2018-08-24T01:06:59.318Z,21.20
2018-08-24T01:09:27.526Z,21.20
2018-08-24T01:12:00.949Z,21.20
2018-08-24T01:14:29.153Z,21.20
2018-08-24T01:19:04.089Z,21.20
2018-08-24T01:21:32.345Z,21.20
2018-08-24T01:24:00.541Z,21.10
2018-08-24T01:26:28.744Z,21.10
2018-08-24T01:28:56.917Z,21.10
2018-08-24T01:31:25.109Z,21.20
2018-08-24T01:33:53.296Z,21.20
2018-08-24T01:36:21.478Z,21.20
2018-08-24T01:38:49.863Z,21.30
2018-08-24T01:41:18.044Z,21.30
2018-08-24T01:43:46.529Z,21.20
2018-08-24T01:46:15.669Z,21.10
2018-08-24T01:48:43.844Z,21.00
2018-08-24T01:51:12.069Z,21.00
2018-08-24T01:53:40.253Z,21.00
2018-08-24T01:56:08.429Z,21.00
2018-08-24T01:58:36.656Z,20.90
2018-08-24T02:01:04.930Z,20.90
2018-08-24T02:03:33.111Z,20.80
2018-08-24T02:06:05.777Z,20.80
2018-08-24T02:08:34.794Z,20.80
2018-08-24T02:11:07.401Z,20.80
2018-08-24T02:13:41.095Z,20.80
2018-08-24T02:16:09.281Z,20.70
2018-08-24T02:18:42.957Z,20.80
2018-08-24T02:21:16.574Z,20.80
2018-08-24T02:23:44.773Z,20.70
2018-08-24T02:26:13.225Z,20.70
2018-08-24T02:28:41.409Z,20.70
2018-08-24T02:31:09.632Z,20.70
2018-08-24T02:33:39.460Z,20.70
2018-08-24T02:36:08.829Z,20.70
2018-08-24T02:38:37.454Z,20.70
2018-08-24T02:41:05.654Z,20.70
2018-08-24T02:43:33.829Z,20.60
2018-08-24T02:46:02.024Z,20.60
2018-08-24T02:48:30.793Z,20.60
2018-08-24T02:50:58.986Z,20.60
2018-08-24T02:53:27.217Z,20.50
2018-08-24T02:55:55.412Z,20.50
2018-08-24T02:58:23.601Z,20.60
2018-08-24T03:00:51.774Z,20.60
2018-08-24T03:03:19.996Z,20.60
2018-08-24T03:05:48.211Z,20.50
2018-08-24T03:08:16.389Z,20.50
2018-08-24T03:10:44.673Z,20.40
2018-08-24T03:13:12.873Z,20.20
2018-08-24T03:15:41.061Z,20.20
2018-08-24T03:18:09.257Z,20.20
2018-08-24T03:20:37.434Z,20.20
2018-08-24T03:23:05.861Z,20.30
2018-08-24T03:25:34.081Z,20.30
2018-08-24T03:28:02.277Z,20.30
2018-08-24T03:30:30.469Z,20.20
2018-08-24T03:32:58.845Z,20.20
2018-08-24T03:35:27.037Z,20.10
2018-08-24T03:37:55.245Z,20.00
2018-08-24T03:40:23.467Z,20.10
2018-08-24T03:42:51.898Z,20.00
2018-08-24T03:45:20.089Z,20.00
2018-08-24T03:47:48.271Z,19.90
2018-08-24T03:50:16.472Z,20.00
2018-08-24T03:52:44.674Z,20.00
2018-08-24T03:55:13.029Z,20.00
2018-08-24T03:57:41.400Z,19.90
2018-08-24T04:00:13.965Z,19.80
2018-08-24T04:02:42.461Z,19.80
2018-08-24T04:05:10.646Z,19.80
2018-08-24T04:07:38.819Z,19.80
2018-08-24T04:10:07.321Z,19.80
2018-08-24T04:12:35.498Z,19.80
2018-08-24T04:15:03.713Z,19.80
2018-08-24T04:17:37.365Z,19.80
2018-08-24T04:20:05.645Z,19.80
2018-08-24T04:22:33.827Z,19.80
2018-08-24T04:25:05.297Z,19.90
2018-08-24T04:27:33.493Z,19.80
2018-08-24T04:30:01.679Z,19.90
2018-08-24T04:32:29.865Z,19.80
2018-08-24T04:34:58.080Z,19.90
2018-08-24T04:37:26.249Z,20.00
2018-08-24T04:39:54.436Z,20.10
2018-08-24T04:42:22.675Z,20.10
2018-08-24T04:44:50.885Z,20.20
2018-08-24T04:47:19.065Z,20.20
2018-08-24T04:49:47.285Z,20.20
2018-08-24T04:52:15.562Z,20.10
2018-08-24T04:54:43.815Z,20.10
2018-08-24T04:57:11.990Z,20.10
2018-08-24T04:59:40.393Z,20.10
2018-08-24T05:02:08.589Z,20.10
2018-08-24T05:04:36.805Z,20.10
2018-08-24T05:07:05.673Z,20.20
2018-08-24T05:09:33.877Z,20.20
2018-08-24T05:12:02.061Z,20.20
2018-08-24T05:14:30.253Z,20.20
2018-08-24T05:16:58.529Z,20.20
2018-08-24T05:19:26.699Z,20.20
2018-08-24T05:21:55.159Z,20.30
2018-08-24T05:24:23.428Z,20.30
2018-08-24T05:26:51.577Z,20.40
2018-08-24T05:29:19.746Z,20.50
2018-08-24T05:31:47.913Z,20.50
2018-08-24T05:34:16.129Z,20.60
2018-08-24T05:36:44.401Z,20.60
2018-08-24T05:39:12.593Z,20.70
2018-08-24T05:41:40.781Z,20.70
2018-08-24T05:44:09.066Z,20.70
2018-08-24T05:46:37.240Z,20.70
2018-08-24T05:49:05.435Z,20.80
2018-08-24T05:51:33.635Z,20.80
2018-08-24T05:54:01.829Z,20.90
2018-08-24T05:56:30.237Z,20.90
2018-08-24T05:58:58.421Z,20.90
2018-08-24T06:01:26.610Z,21.00
2018-08-24T06:03:54.811Z,21.10
2018-08-24T06:06:23.272Z,21.20
2018-08-24T06:08:56.839Z,21.30
2018-08-24T06:11:25.019Z,21.40
2018-08-24T06:13:53.197Z,21.50
2018-08-24T06:16:21.536Z,21.70
2018-08-24T06:18:49.740Z,21.90
2018-08-24T06:21:17.917Z,22.10
2018-08-24T06:23:47.116Z,22.30
2018-08-24T06:26:15.496Z,22.40
2018-08-24T06:28:43.897Z,22.50
2018-08-24T06:31:12.145Z,22.60
2018-08-24T06:33:40.354Z,22.60
2018-08-24T06:36:08.533Z,22.70
2018-08-24T06:38:36.805Z,22.90
2018-08-24T06:41:05.297Z,23.00
2018-08-24T06:43:33.466Z,23.10
2018-08-24T06:46:01.907Z,23.20
2018-08-24T06:48:30.105Z,23.20
2018-08-24T06:50:59.256Z,23.20
2018-08-24T06:53:28.118Z,23.10
2018-08-24T06:55:56.257Z,23.10
2018-08-24T06:58:24.523Z,23.10
2018-08-24T07:00:52.796Z,23.10
2018-08-24T07:03:21.182Z,23.10
2018-08-24T07:05:49.441Z,23.10
2018-08-24T07:08:17.655Z,23.20
2018-08-24T07:10:45.847Z,23.40
2018-08-24T07:13:14.291Z,23.60
2018-08-24T07:15:42.500Z,23.60
2018-08-24T07:18:10.749Z,23.70
2018-08-24T07:20:39.009Z,23.80
2018-08-24T07:23:07.196Z,23.90
2018-08-24T07:25:35.381Z,23.90
2018-08-24T07:28:03.577Z,23.90
2018-08-24T07:30:31.810Z,24.00
2018-08-24T07:33:00.027Z,24.20
2018-08-24T07:35:28.290Z,24.20
2018-08-24T07:37:56.532Z,24.40
2018-08-24T07:40:24.877Z,24.50
2018-08-24T07:42:53.084Z,24.60
2018-08-24T07:45:21.313Z,24.70
2018-08-24T07:47:49.514Z,24.80
2018-08-24T07:50:17.713Z,25.00
2018-08-24T07:52:45.910Z,25.10
2018-08-24T07:55:14.127Z,25.10
2018-08-24T07:57:42.452Z,24.90
2018-08-24T08:00:10.818Z,24.90
2018-08-24T08:02:46.010Z,25.00
2018-08-24T08:05:14.949Z,24.90
2018-08-24T08:07:43.149Z,24.90
2018-08-24T08:10:11.340Z,25.00
2018-08-24T08:12:39.644Z,24.90
2018-08-24T08:15:08.837Z,24.90
2018-08-24T08:17:38.054Z,24.80
2018-08-24T08:20:06.689Z,24.70
2018-08-24T08:22:34.893Z,24.70
2018-08-24T08:25:03.125Z,24.80
2018-08-24T08:27:31.809Z,24.80
2018-08-24T08:30:02.166Z,24.90
2018-08-24T08:32:31.105Z,25.10
2018-08-24T08:34:59.398Z,25.30
2018-08-24T08:37:27.659Z,25.40
2018-08-24T08:40:01.428Z,25.50
2018-08-24T08:42:30.017Z,25.70
2018-08-24T08:44:58.631Z,25.70
2018-08-24T08:47:26.818Z,25.60
2018-08-24T08:49:56.076Z,25.50
2018-08-24T08:52:24.309Z,25.40
2018-08-24T08:54:52.602Z,25.40
2018-08-24T08:57:21.398Z,25.50
2018-08-24T08:59:49.672Z,25.40
2018-08-24T09:02:17.886Z,25.70
2018-08-24T09:04:46.077Z,26.00
2018-08-24T09:07:14.293Z,26.20
2018-08-24T09:09:42.525Z,26.30
2018-08-24T09:12:10.946Z,26.10
2018-08-24T09:14:39.532Z,26.10
2018-08-24T09:17:13.033Z,26.00
2018-08-24T09:19:46.891Z,26.00
2018-08-24T09:22:20.313Z,26.10
2018-08-24T09:24:53.817Z,26.40
2018-08-24T09:27:27.325Z,26.30
2018-08-24T09:29:57.998Z,26.30
2018-08-24T09:32:26.273Z,26.10
2018-08-24T09:34:54.415Z,26.10
2018-08-24T09:37:28.002Z,25.90
2018-08-24T09:39:56.381Z,25.80
2018-08-24T09:42:24.750Z,25.70
2018-08-24T09:44:52.993Z,25.70
2018-08-24T09:47:26.500Z,25.90
2018-08-24T09:49:54.716Z,25.90
2018-08-24T09:52:27.150Z,25.80
2018-08-24T09:54:56.113Z,25.30
2018-08-24T09:57:24.456Z,25.00
2018-08-24T09:59:53.315Z,24.70
2018-08-24T10:02:24.295Z,24.50
2018-08-24T10:04:57.924Z,24.40
2018-08-24T10:07:31.451Z,24.30
2018-08-24T10:09:59.830Z,24.20
2018-08-24T10:12:32.298Z,24.00
2018-08-24T10:15:00.866Z,23.70
2018-08-24T10:17:29.374Z,23.40
2018-08-24T10:19:57.801Z,23.30
2018-08-24T10:22:26.198Z,23.20
2018-08-24T10:24:55.018Z,23.00
2018-08-24T10:27:23.500Z,22.80
2018-08-24T10:29:51.798Z,22.80
2018-08-24T10:32:19.952Z,22.80
2018-08-24T10:34:48.232Z,23.00
2018-08-24T10:37:16.429Z,23.20
2018-08-24T10:39:44.780Z,23.50
2018-08-24T10:42:13.185Z,23.60
2018-08-24T10:44:41.435Z,24.00
2018-08-24T10:47:09.665Z,23.90
2018-08-24T10:49:37.848Z,24.00
2018-08-24T10:52:06.119Z,24.00
2018-08-24T10:54:34.331Z,23.80
2018-08-24T10:57:02.760Z,23.40
2018-08-24T10:59:30.971Z,23.10
2018-08-24T11:01:59.263Z,22.80
2018-08-24T11:04:27.749Z,22.50
2018-08-24T11:06:56.026Z,22.30
2018-08-24T11:09:24.290Z,22.00
2018-08-24T11:11:52.510Z,21.90
2018-08-24T11:14:20.863Z,21.80
2018-08-24T11:16:49.233Z,21.70
2018-08-24T11:19:17.429Z,21.50
2018-08-24T11:21:45.665Z,21.40
2018-08-24T11:24:13.885Z,21.30
2018-08-24T11:26:42.186Z,21.20
2018-08-24T11:29:10.369Z,20.90
2018-08-24T11:31:38.601Z,20.70
2018-08-24T11:34:06.980Z,20.80
2018-08-24T11:36:35.091Z,20.90
2018-08-24T11:39:04.453Z,21.00
2018-08-24T11:41:32.693Z,21.20
2018-08-24T11:44:00.929Z,21.30
2018-08-24T11:46:29.336Z,21.20
2018-08-24T11:48:57.558Z,21.10
2018-08-24T11:51:25.925Z,21.00
2018-08-24T11:53:54.182Z,21.20
2018-08-24T11:56:22.340Z,21.50
2018-08-24T11:58:50.570Z,21.60
2018-08-24T12:01:18.826Z,21.70
2018-08-24T12:03:47.129Z,21.80
2018-08-24T12:06:15.333Z,21.90
2018-08-24T12:08:43.580Z,21.80
2018-08-24T12:11:12.058Z,22.10
2018-08-24T12:13:40.308Z,22.30
2018-08-24T12:16:08.519Z,23.00
2018-08-24T12:18:36.778Z,24.30
2018-08-24T12:21:05.029Z,26.00
2018-08-24T12:23:33.216Z,27.40
2018-08-24T12:26:01.423Z,28.00
2018-08-24T12:28:29.652Z,29.10
2018-08-24T12:30:57.875Z,31.10
2018-08-24T12:33:26.646Z,32.40
2018-08-24T12:35:54.821Z,32.70
2018-08-24T12:38:23.070Z,32.70
2018-08-24T12:40:51.529Z,33.30
2018-08-24T12:43:19.771Z,33.10
2018-08-24T12:45:47.974Z,32.50
2018-08-24T12:48:16.213Z,32.20
2018-08-24T12:50:45.339Z,31.90
2018-08-24T12:53:13.552Z,31.20
2018-08-24T12:55:42.102Z,30.50
2018-08-24T12:58:10.325Z,29.90
2018-08-24T13:00:38.590Z,29.30
2018-08-24T13:03:06.789Z,29.10
2018-08-24T13:05:35.005Z,28.70
2018-08-24T13:08:03.390Z,28.40
2018-08-24T13:10:31.605Z,28.30
2018-08-24T13:12:59.808Z,28.40
2018-08-24T13:15:28.226Z,28.60
2018-08-24T13:17:56.446Z,29.10
2018-08-24T13:20:24.685Z,29.30
2018-08-24T13:22:52.905Z,29.30
2018-08-24T13:25:21.458Z,29.30
2018-08-24T13:27:49.666Z,29.10
2018-08-24T13:30:17.905Z,28.90
2018-08-24T13:32:46.162Z,28.60
2018-08-24T13:35:14.385Z,28.70
2018-08-24T13:37:42.594Z,28.70
2018-08-24T13:40:10.918Z,29.00
2018-08-24T13:42:39.113Z,29.50
2018-08-24T13:45:07.597Z,29.90
2018-08-24T13:47:36.013Z,30.30
2018-08-24T13:50:04.732Z,30.80
2018-08-24T13:52:32.922Z,30.90
2018-08-24T13:55:01.194Z,30.60
2018-08-24T13:57:29.461Z,30.80
2018-08-24T13:59:57.724Z,31.70
2018-08-24T14:02:26.023Z,31.90
2018-08-24T14:04:54.236Z,31.90
2018-08-24T14:07:22.467Z,31.90
2018-08-24T14:09:50.665Z,31.60
2018-08-24T14:12:18.922Z,31.30
2018-08-24T14:14:47.290Z,31.10
2018-08-24T14:17:15.485Z,30.90
2018-08-24T14:19:44.539Z,30.40
2018-08-24T14:22:12.741Z,29.90
2018-08-24T14:24:41.755Z,29.60
2018-08-24T14:27:09.953Z,29.70
2018-08-24T14:29:38.177Z,29.80
2018-08-24T14:32:06.756Z,30.20
2018-08-24T14:34:34.926Z,31.10
2018-08-24T14:37:03.129Z,32.40
2018-08-24T14:39:31.325Z,33.30
2018-08-24T14:41:59.573Z,33.10
2018-08-24T14:44:27.785Z,32.30
2018-08-24T14:46:56.326Z,31.20
2018-08-24T14:49:24.513Z,30.00
2018-08-24T14:51:52.763Z,28.80
2018-08-24T14:54:20.957Z,27.80
2018-08-24T14:56:49.169Z,27.00
2018-08-24T14:59:17.421Z,26.60
2018-08-24T15:01:45.637Z,25.90
2018-08-24T15:04:13.853Z,24.60
2018-08-24T15:06:42.166Z,22.90
2018-08-24T15:09:11.837Z,21.40
2018-08-24T15:11:40.489Z,20.60
2018-08-24T15:14:09.105Z,20.20
2018-08-24T15:16:37.378Z,20.00
2018-08-24T15:20:35.175Z,20.00
2018-08-24T15:23:03.465Z,19.90
2018-08-24T15:25:31.759Z,19.40
2018-08-24T15:27:59.999Z,19.50
2018-08-24T15:30:28.588Z,19.50
2018-08-24T15:32:56.823Z,19.40
2018-08-24T15:35:25.123Z,19.40
2018-08-24T15:37:53.339Z,19.40
2018-08-24T15:40:21.566Z,19.70
2018-08-24T15:42:50.043Z,20.20
2018-08-24T15:45:18.244Z,20.70
2018-08-24T15:47:46.474Z,20.90
2018-08-24T15:50:14.753Z,21.00
2018-08-24T15:52:43.267Z,21.00
2018-08-24T15:55:11.499Z,21.00
2018-08-24T15:57:39.805Z,21.00
2018-08-24T16:00:08.107Z,20.90
2018-08-24T16:02:36.334Z,20.90
2018-08-24T16:05:04.653Z,20.80
2018-08-24T16:07:37.256Z,20.70
2018-08-24T16:10:06.095Z,20.80
2018-08-24T16:12:34.326Z,21.00
2018-08-24T16:15:02.700Z,21.20
2018-08-24T16:17:30.938Z,21.40
2018-08-24T16:19:59.555Z,21.60
2018-08-24T16:22:27.802Z,21.80
2018-08-24T16:24:56.036Z,21.90
2018-08-24T16:27:25.083Z,22.00
2018-08-24T16:29:55.567Z,22.00
2018-08-24T16:32:23.818Z,21.90
2018-08-24T16:34:52.158Z,21.90
2018-08-24T16:37:20.902Z,21.90
2018-08-24T16:39:49.181Z,21.80
2018-08-24T16:42:17.488Z,21.70
2018-08-24T16:44:46.117Z,21.50
2018-08-24T16:47:14.334Z,21.30
2018-08-24T16:49:42.571Z,21.20
2018-08-24T16:52:10.973Z,21.20
2018-08-24T16:54:39.210Z,21.10
2018-08-24T16:57:07.767Z,21.00
2018-08-24T16:59:36.310Z,21.00
2018-08-24T17:02:04.971Z,20.90
2018-08-24T17:04:33.202Z,20.90
2018-08-24T17:07:01.432Z,20.90
2018-08-24T17:09:29.649Z,20.80
2018-08-24T17:11:58.130Z,20.80
2018-08-24T17:14:26.355Z,20.60
2018-08-24T17:16:54.564Z,20.50
2018-08-24T17:19:22.763Z,20.50
2018-08-24T17:21:51.035Z,20.50
2018-08-24T17:24:19.253Z,20.50
2018-08-24T17:26:47.472Z,20.50
2018-08-24T17:29:15.856Z,20.50
2018-08-24T17:31:44.234Z,20.50
2018-08-24T17:34:12.445Z,20.50
2018-08-24T17:36:40.653Z,20.40
2018-08-24T17:39:10.101Z,20.40
2018-08-24T17:41:38.332Z,20.20
2018-08-24T17:44:06.792Z,20.10
2018-08-24T17:46:35.013Z,20.10
2018-08-24T17:49:03.461Z,20.10
2018-08-24T17:51:31.681Z,20.00
2018-08-24T17:53:59.874Z,20.00
2018-08-24T17:56:28.080Z,19.90
2018-08-24T17:58:56.330Z,19.80
2018-08-24T18:01:24.615Z,19.70
2018-08-24T18:03:52.808Z,19.70
2018-08-24T18:06:21.438Z,19.60
2018-08-24T18:08:49.737Z,19.50
2018-08-24T18:11:17.967Z,19.50
2018-08-24T18:13:46.204Z,19.40
2018-08-24T18:16:14.389Z,19.40
2018-08-24T18:18:42.596Z,19.40
2018-08-24T18:21:10.849Z,19.40
2018-08-24T18:23:39.174Z,19.30
2018-08-24T18:26:08.218Z,19.20
2018-08-24T18:28:36.413Z,19.30
2018-08-24T18:31:04.977Z,19.30
2018-08-24T18:33:33.168Z,19.20
2018-08-24T18:36:01.726Z,19.20
2018-08-24T18:38:29.942Z,19.10
2018-08-24T18:40:58.218Z,19.10
2018-08-24T18:43:26.909Z,19.00
2018-08-24T18:45:55.184Z,19.00
2018-08-24T18:48:23.381Z,19.00
2018-08-24T18:50:51.733Z,18.90
2018-08-24T18:53:21.037Z,18.90
2018-08-24T18:55:49.273Z,18.90
2018-08-24T18:58:17.606Z,18.90
2018-08-24T19:00:46.014Z,18.80
2018-08-24T19:03:14.279Z,18.80
2018-08-24T19:05:42.527Z,18.70
2018-08-24T19:08:11.945Z,18.60
2018-08-24T19:10:45.627Z,18.30
2018-08-24T19:13:15.904Z,18.20
2018-08-24T19:15:45.125Z,18.20
2018-08-24T19:18:18.639Z,18.10
2018-08-24T19:22:16.357Z,18.10
2018-08-24T19:24:44.596Z,18.10
2018-08-24T19:27:12.951Z,17.90
2018-08-24T19:29:46.331Z,17.90
2018-08-24T19:32:14.610Z,17.90
2018-08-24T19:34:42.849Z,17.90
2018-08-24T19:37:11.145Z,18.00
2018-08-24T19:39:39.392Z,18.00
2018-08-24T19:42:12.921Z,18.00
2018-08-24T19:44:41.350Z,17.90
2018-08-24T19:47:13.782Z,17.90
2018-08-24T19:49:42.062Z,17.90
2018-08-24T19:52:11.486Z,17.90
2018-08-24T19:54:39.713Z,17.90
2018-08-24T19:57:13.433Z,17.90
2018-08-24T19:59:41.669Z,17.90
2018-08-24T20:02:09.993Z,17.70
2018-08-24T20:04:38.249Z,17.70
2018-08-24T20:07:11.663Z,17.70
2018-08-24T20:10:15.062Z,17.50
2018-08-24T20:12:43.696Z,17.50
2018-08-24T20:15:17.198Z,17.50
2018-08-24T20:17:45.407Z,17.50
2018-08-24T20:20:13.701Z,17.50
2018-08-24T20:22:41.923Z,17.40
2018-08-24T20:25:10.137Z,17.50
2018-08-24T20:27:38.354Z,17.40
2018-08-24T20:30:07.468Z,17.30
2018-08-24T20:32:35.749Z,17.30
2018-08-24T20:35:04.328Z,17.20
2018-08-24T20:37:32.554Z,17.20
2018-08-24T20:40:00.811Z,17.10
2018-08-24T20:42:29.002Z,17.10
2018-08-24T20:44:57.200Z,17.10
2018-08-24T20:47:25.609Z,17.10
2018-08-24T20:49:53.646Z,17.10
2018-08-24T20:52:22.876Z,17.10
2018-08-24T20:54:51.089Z,17.10
2018-08-24T20:57:19.344Z,17.00
2018-08-24T20:59:47.536Z,16.90
2018-08-24T21:02:15.784Z,16.90
2018-08-24T21:04:43.997Z,17.00
2018-08-24T21:07:12.200Z,17.00
2018-08-24T21:09:40.400Z,17.00
2018-08-24T21:12:08.616Z,17.10
2018-08-24T21:14:36.917Z,17.10
2018-08-24T21:17:05.051Z,17.10
2018-08-24T21:19:33.515Z,17.00
2018-08-24T21:22:01.713Z,17.00
2018-08-24T21:24:29.932Z,16.90
2018-08-24T21:26:58.132Z,16.90
2018-08-24T21:29:26.334Z,16.90
2018-08-24T21:31:54.553Z,17.00
2018-08-24T21:34:22.765Z,17.00
2018-08-24T21:36:50.957Z,17.00
2018-08-24T21:39:19.213Z,17.00
2018-08-24T21:41:47.708Z,17.00
2018-08-24T21:44:15.918Z,17.00
2018-08-24T21:46:44.145Z,17.00
2018-08-24T21:49:12.365Z,16.90
2018-08-24T21:51:40.613Z,16.80
2018-08-24T21:54:08.864Z,16.70
2018-08-24T21:56:37.061Z,16.70
2018-08-24T21:59:05.353Z,16.80
2018-08-24T22:01:33.553Z,16.70
2018-08-24T22:04:01.901Z,16.70
2018-08-24T22:06:30.145Z,16.60
2018-08-24T22:08:58.373Z,16.60
2018-08-24T22:11:26.591Z,16.60
2018-08-24T22:13:54.801Z,16.60
2018-08-24T22:16:23.074Z,16.70
2018-08-24T22:18:51.323Z,16.70
2018-08-24T22:21:19.525Z,16.80
2018-08-24T22:23:47.789Z,16.80
2018-08-24T22:26:16.074Z,16.90
2018-08-24T22:28:44.321Z,16.90
2018-08-24T22:31:12.602Z,16.90
2018-08-24T22:33:40.822Z,16.90
2018-08-24T22:36:09.049Z,16.90
2018-08-24T22:38:37.352Z,16.90
2018-08-24T22:41:06.130Z,16.80
2018-08-24T22:43:35.804Z,16.80
2018-08-24T22:46:04.553Z,16.90
2018-08-24T22:48:33.249Z,16.80
2018-08-24T22:51:01.585Z,16.80
2018-08-24T22:53:29.793Z,16.80
2018-08-24T22:55:57.973Z,16.70
2018-08-24T22:58:26.198Z,16.70
2018-08-24T23:00:54.385Z,16.70
2018-08-24T23:03:22.629Z,16.60
2018-08-24T23:05:50.861Z,16.70
2018-08-24T23:08:19.105Z,16.70
2018-08-24T23:10:47.493Z,16.60
2018-08-24T23:13:15.717Z,16.60
2018-08-24T23:15:43.921Z,16.70
2018-08-24T23:18:12.105Z,16.70
2018-08-24T23:20:40.329Z,16.70
2018-08-24T23:23:08.553Z,16.60
2018-08-24T23:25:36.757Z,16.60
2018-08-24T23:28:05.151Z,16.60
2018-08-24T23:30:33.350Z,16.60
2018-08-24T23:33:01.558Z,16.70
2018-08-24T23:35:29.828Z,16.70
2018-08-24T23:37:58.105Z,16.70
2018-08-24T23:40:26.317Z,16.70
2018-08-24T23:42:54.554Z,16.60
2018-08-24T23:45:22.753Z,16.60
2018-08-24T23:47:50.965Z,16.60
2018-08-24T23:50:19.190Z,16.60
2018-08-24T23:52:47.481Z,16.50
2018-08-24T23:55:15.717Z,16.50
2018-08-24T23:57:43.949Z,16.50
